Time;durP1;ratioP1;P1;durP2;ratioP2;P2;SDS_P1;SDS_P2;PMS_P1;PMS_P2;Temp;Humidity;BMP_temperature;BMP_pressure;BME280_temperature;BME280_humidity;BME280_pressure;Samples;Min_cycle;Max_cycle;Signal;HPM_P1;HPM_P2
2020/12/11 00:00:20;;;;;;;15.13;8.70;;;11.30;70.20;;;;;;5096965;28;20389;-77
2020/12/11 00:02:46;;;;;;;14.07;9.15;;;11.30;70.50;;;;;;5096721;28;20032;-76
2020/12/11 00:05:12;;;;;;;14.10;9.55;;;11.30;70.40;;;;;;5096667;28;20055;-75
2020/12/11 00:07:39;;;;;;;12.75;8.75;;;11.20;70.70;;;;;;5097089;28;20103;-78
2020/12/11 00:10:07;;;;;;;13.90;9.52;;;11.20;70.90;;;;;;5096748;28;20020;-72
2020/12/11 00:12:33;;;;;;;13.55;8.85;;;11.30;72.00;;;;;;5096579;28;20032;-76
2020/12/11 00:15:04;;;;;;;13.15;8.70;;;11.30;71.20;;;;;;5096485;28;20031;-74
2020/12/11 00:17:30;;;;;;;13.65;9.90;;;11.30;71.70;;;;;;5096442;28;20036;-75
2020/12/11 00:19:56;;;;;;;19.27;10.02;;;11.30;71.60;;;;;;5096530;28;20050;-76
2020/12/11 00:22:22;;;;;;;17.20;9.27;;;11.40;72.00;;;;;;5096728;28;20062;-74
2020/12/11 00:24:49;;;;;;;14.68;8.73;;;11.40;72.20;;;;;;5096297;28;20012;-76
2020/12/11 00:27:15;;;;;;;13.73;8.45;;;11.40;72.00;;;;;;5096303;28;20028;-76
2020/12/11 00:29:41;;;;;;;13.63;8.05;;;11.50;72.40;;;;;;5096173;28;20031;-77
2020/12/11 00:32:07;;;;;;;14.57;7.60;;;11.50;72.00;;;;;;5095926;28;20024;-76
2020/12/11 00:34:33;;;;;;;11.70;7.32;;;11.40;71.50;;;;;;5096294;28;20024;-76
2020/12/11 00:36:59;;;;;;;12.70;7.78;;;11.40;71.50;;;;;;5096751;28;20020;-76
2020/12/11 00:39:24;;;;;;;10.60;6.60;;;11.30;71.60;;;;;;5096966;28;20511;-75
2020/12/11 00:41:50;;;;;;;11.93;7.65;;;11.20;71.60;;;;;;5096879;28;20016;-77
2020/12/11 00:44:16;;;;;;;10.57;7.05;;;11.10;71.60;;;;;;5096992;28;20385;-77
2020/12/11 00:46:42;;;;;;;10.95;7.07;;;11.10;71.70;;;;;;5096326;28;20039;-75
2020/12/11 00:49:08;;;;;;;13.63;7.85;;;11.20;72.10;;;;;;5096212;28;20020;-74
2020/12/11 00:51:34;;;;;;;12.77;8.30;;;11.30;72.20;;;;;;5095334;28;20526;-76
2020/12/11 00:53:59;;;;;;;12.27;8.07;;;11.30;72.10;;;;;;5077749;28;20028;-76
2020/12/11 00:56:25;;;;;;;12.07;8.10;;;11.40;72.20;;;;;;5095745;28;20046;-74
2020/12/11 00:58:51;;;;;;;10.43;7.45;;;11.40;72.40;;;;;;5095820;28;20031;-74
2020/12/11 01:01:17;;;;;;;12.57;8.20;;;11.40;72.40;;;;;;5095790;28;20511;-77
2020/12/11 01:03:43;;;;;;;11.55;8.15;;;11.40;72.60;;;;;;5095676;28;20035;-76
2020/12/11 01:06:09;;;;;;;10.23;6.68;;;11.40;72.50;;;;;;5095470;28;20127;-75
2020/12/11 01:08:36;;;;;;;12.32;7.35;;;11.40;72.40;;;;;;5095411;28;20039;-76
2020/12/11 01:11:02;;;;;;;13.60;7.70;;;11.30;72.10;;;;;;5095381;28;20024;-75
2020/12/11 01:13:28;;;;;;;11.85;7.30;;;11.30;72.40;;;;;;5095542;28;20048;-76
2020/12/11 01:15:54;;;;;;;12.48;7.80;;;11.30;72.60;;;;;;5060503;28;20055;-74
2020/12/11 01:18:20;;;;;;;12.68;7.78;;;11.40;72.50;;;;;;5095396;28;20043;-76
2020/12/11 01:20:46;;;;;;;12.75;8.13;;;11.40;73.00;;;;;;5095240;28;20130;-76
2020/12/11 01:23:11;;;;;;;12.23;7.30;;;11.30;72.50;;;;;;5095155;28;20504;-73
2020/12/11 01:25:37;;;;;;;13.45;7.75;;;11.30;72.80;;;;;;5094790;28;20035;-73
2020/12/11 01:28:04;;;;;;;9.70;6.88;;;11.30;72.70;;;;;;5095366;28;20412;-76
2020/12/11 01:30:33;;;;;;;14.40;7.75;;;11.30;72.70;;;;;;5095184;28;20032;-74
2020/12/11 01:32:58;;;;;;;11.75;7.38;;;11.30;72.70;;;;;;5094983;28;20431;-75
2020/12/11 01:35:24;;;;;;;13.32;8.05;;;11.40;72.70;;;;;;5095007;28;20028;-76
2020/12/11 01:37:50;;;;;;;12.18;8.18;;;11.40;72.70;;;;;;5095000;28;20035;-76
2020/12/11 01:40:16;;;;;;;14.45;8.25;;;11.40;72.70;;;;;;5095229;28;20028;-75
2020/12/11 01:42:42;;;;;;;14.10;8.40;;;11.40;72.90;;;;;;5094630;28;20064;-77
2020/12/11 01:45:08;;;;;;;12.35;7.82;;;11.40;72.90;;;;;;5094612;28;20058;-73
2020/12/11 01:47:39;;;;;;;11.93;8.00;;;11.40;73.00;;;;;;5095099;28;20376;-74
2020/12/11 01:50:06;;;;;;;12.52;8.10;;;11.40;73.40;;;;;;5094555;28;20028;-74
2020/12/11 01:52:32;;;;;;;10.75;6.88;;;11.50;73.50;;;;;;5094517;28;20024;-76
2020/12/11 01:54:58;;;;;;;13.15;7.00;;;11.40;73.00;;;;;;5094572;28;20086;-74
2020/12/11 01:57:39;;;;;;;13.07;7.55;;;11.40;73.10;;;;;;5095272;28;20021;-77
2020/12/11 02:00:08;;;;;;;11.45;6.85;;;11.40;73.10;;;;;;5095050;28;20073;-76
2020/12/11 02:02:37;;;;;;;11.27;6.30;;;11.40;73.20;;;;;;5094791;28;20032;-76
2020/12/11 02:05:09;;;;;;;16.65;10.55;;;11.30;73.30;;;;;;5075701;28;20492;-76
2020/12/11 02:07:38;;;;;;;12.73;8.48;;;11.40;73.20;;;;;;5095477;28;20028;-75
2020/12/11 02:10:06;;;;;;;13.05;8.75;;;11.30;73.10;;;;;;5096299;28;20373;-76
2020/12/11 02:12:32;;;;;;;12.40;8.27;;;11.30;73.30;;;;;;5094724;28;20047;-75
2020/12/11 02:14:58;;;;;;;13.80;9.55;;;11.30;73.30;;;;;;5094846;28;20496;-75
2020/12/11 02:17:27;;;;;;;14.80;10.15;;;11.30;73.50;;;;;;5094212;28;20020;-73
2020/12/11 02:19:54;;;;;;;16.08;11.43;;;11.30;73.60;;;;;;5093240;28;20070;-72
2020/12/11 02:22:20;;;;;;;14.60;10.77;;;11.30;73.50;;;;;;5094066;28;20042;-77
2020/12/11 02:24:46;;;;;;;16.90;11.48;;;11.30;74.30;;;;;;5094011;28;20023;-77
2020/12/11 02:27:12;;;;;;;17.35;11.85;;;11.30;73.50;;;;;;5075570;28;20066;-73
2020/12/11 02:29:38;;;;;;;15.23;11.25;;;11.30;73.40;;;;;;5094364;28;20499;-75
2020/12/11 02:32:03;;;;;;;14.32;11.43;;;11.20;73.10;;;;;;5093737;28;20550;-75
2020/12/11 02:34:29;;;;;;;14.52;10.82;;;11.20;73.10;;;;;;5075556;28;20028;-73
2020/12/11 02:37:04;;;;;;;16.52;11.07;;;11.10;73.30;;;;;;5093913;28;20028;-74
2020/12/11 02:39:30;;;;;;;13.73;11.18;;;11.10;73.30;;;;;;5075812;28;20028;-73
2020/12/11 02:41:56;;;;;;;13.95;10.48;;;11.10;73.30;;;;;;5093726;28;20028;-77
2020/12/11 02:44:21;;;;;;;16.33;11.38;;;11.00;73.30;;;;;;5093511;28;20097;-75
2020/12/11 02:46:47;;;;;;;14.10;11.27;;;11.10;73.50;;;;;;5093656;28;20106;-74
2020/12/11 02:49:13;;;;;;;13.88;10.63;;;11.10;73.20;;;;;;5093738;28;20024;-74
2020/12/11 02:51:39;;;;;;;16.52;10.60;;;11.00;73.10;;;;;;5093506;28;20050;-73
2020/12/11 02:54:05;;;;;;;15.00;10.63;;;11.00;73.30;;;;;;5093977;28;20028;-75
2020/12/11 02:56:31;;;;;;;14.52;10.15;;;11.00;73.50;;;;;;5094371;28;20107;-75
2020/12/11 02:58:56;;;;;;;13.15;9.32;;;11.00;73.30;;;;;;5094162;28;20119;-73
2020/12/11 03:01:25;;;;;;;18.58;10.15;;;10.90;73.40;;;;;;5093967;28;20024;-75
2020/12/11 03:03:51;;;;;;;13.18;9.48;;;10.90;73.70;;;;;;5093371;28;20028;-75
2020/12/11 03:06:16;;;;;;;11.93;8.75;;;10.90;73.60;;;;;;5093185;28;20055;-73
2020/12/11 03:08:42;;;;;;;14.20;9.20;;;11.00;73.60;;;;;;5075803;28;20111;-76
2020/12/11 03:11:08;;;;;;;13.32;9.25;;;11.00;73.40;;;;;;5093250;28;20024;-75
2020/12/11 03:13:34;;;;;;;15.57;9.93;;;11.10;73.30;;;;;;5093899;28;20027;-76
2020/12/11 03:15:59;;;;;;;13.20;9.40;;;11.00;73.10;;;;;;5096044;28;20032;-75
2020/12/11 03:18:25;;;;;;;12.98;9.70;;;11.00;73.50;;;;;;5097788;28;20488;-76
2020/12/11 03:20:51;;;;;;;13.82;9.18;;;11.00;73.30;;;;;;5080187;28;20076;-76
2020/12/11 03:23:17;;;;;;;15.40;9.32;;;11.00;73.80;;;;;;5063438;28;20044;-73
2020/12/11 03:25:42;;;;;;;16.42;9.57;;;11.00;73.50;;;;;;5080041;28;20020;-74
2020/12/11 03:28:08;;;;;;;13.73;9.30;;;11.10;73.40;;;;;;5097528;28;20085;-77
2020/12/11 03:30:34;;;;;;;13.77;10.05;;;11.10;73.50;;;;;;5097510;28;20019;-76
2020/12/11 03:32:59;;;;;;;13.50;10.00;;;11.10;73.30;;;;;;5097189;28;20032;-75
2020/12/11 03:35:25;;;;;;;15.82;9.90;;;11.10;73.50;;;;;;5097138;28;20035;-69
2020/12/11 03:37:51;;;;;;;13.10;9.75;;;11.10;73.60;;;;;;5097196;28;20020;-71
2020/12/11 03:40:16;;;;;;;13.25;10.10;;;11.00;73.30;;;;;;5097763;28;20020;-71
2020/12/11 03:42:42;;;;;;;16.40;9.90;;;10.90;73.40;;;;;;5079761;28;20028;-70
2020/12/11 03:45:08;;;;;;;12.77;10.05;;;10.90;74.00;;;;;;5097201;28;20020;-70
2020/12/11 03:47:34;;;;;;;15.73;10.90;;;10.70;73.40;;;;;;5096779;28;20070;-69
2020/12/11 03:50:03;;;;;;;14.77;10.38;;;10.70;74.10;;;;;;5097051;28;20111;-70
2020/12/11 03:52:30;;;;;;;17.55;10.40;;;10.80;73.90;;;;;;5078481;28;20544;-72
2020/12/11 03:54:56;;;;;;;13.20;9.32;;;10.80;74.20;;;;;;5096754;28;20112;-72
2020/12/11 03:57:22;;;;;;;14.95;10.10;;;10.80;73.80;;;;;;5096773;28;20020;-72
2020/12/11 03:59:48;;;;;;;16.63;10.45;;;10.80;73.90;;;;;;5096640;28;20063;-70
2020/12/11 04:02:15;;;;;;;12.23;9.20;;;10.90;73.70;;;;;;5096662;28;20458;-70
2020/12/11 04:04:44;;;;;;;14.60;9.98;;;11.00;73.80;;;;;;5096158;28;20056;-71
2020/12/11 04:07:11;;;;;;;15.35;10.65;;;10.90;73.60;;;;;;5096771;28;20465;-69
2020/12/11 04:09:37;;;;;;;16.17;10.82;;;10.80;73.60;;;;;;5078402;28;20028;-70
2020/12/11 04:12:03;;;;;;;12.05;9.38;;;10.70;73.90;;;;;;5096523;28;20054;-69
2020/12/11 04:14:29;;;;;;;15.05;10.00;;;10.50;73.60;;;;;;5096365;28;20062;-70
2020/12/11 04:16:55;;;;;;;16.02;10.40;;;10.40;74.00;;;;;;5096669;28;20067;-69
2020/12/11 04:19:22;;;;;;;14.65;11.30;;;10.40;74.10;;;;;;5096735;28;20511;-70
2020/12/11 04:21:49;;;;;;;13.85;10.65;;;10.40;74.50;;;;;;5096291;28;20031;-70
2020/12/11 04:24:15;;;;;;;16.38;11.15;;;10.40;74.10;;;;;;5096389;28;20036;-72
2020/12/11 04:26:41;;;;;;;17.20;11.40;;;10.40;74.20;;;;;;5095583;28;20016;-73
2020/12/11 04:29:07;;;;;;;15.90;10.43;;;10.50;74.40;;;;;;5096191;28;20028;-70
2020/12/11 04:31:32;;;;;;;19.42;13.18;;;10.50;74.20;;;;;;5096166;28;20078;-70
2020/12/11 04:33:58;;;;;;;16.67;12.20;;;10.50;74.10;;;;;;5096448;28;20020;-70
2020/12/11 04:36:24;;;;;;;18.02;10.88;;;10.40;74.00;;;;;;5096021;28;20018;-71
2020/12/11 04:38:49;;;;;;;18.10;11.45;;;10.40;74.30;;;;;;5096373;28;20038;-70
2020/12/11 04:41:17;;;;;;;15.57;10.98;;;10.40;74.10;;;;;;5096166;28;20028;-71
2020/12/11 04:43:43;;;;;;;17.42;11.43;;;10.40;74.30;;;;;;5095874;28;20044;-70
2020/12/11 04:46:09;;;;;;;14.40;10.27;;;10.40;74.40;;;;;;5095813;28;20032;-74
2020/12/11 04:48:35;;;;;;;17.75;10.73;;;10.50;74.40;;;;;;5096128;28;20058;-71
2020/12/11 04:51:02;;;;;;;16.63;10.85;;;10.60;74.40;;;;;;5095731;28;20068;-73
2020/12/11 04:53:33;;;;;;;16.15;10.00;;;10.70;74.30;;;;;;5095936;28;20409;-70
2020/12/11 04:56:05;;;;;;;16.45;10.30;;;10.80;74.20;;;;;;5077503;28;20028;-71
2020/12/11 04:58:32;;;;;;;18.13;10.73;;;10.70;73.70;;;;;;5095827;28;20094;-72
2020/12/11 05:01:05;;;;;;;14.50;9.82;;;10.60;74.00;;;;;;5095577;28;20439;-70
2020/12/11 05:03:33;;;;;;;15.82;10.20;;;10.60;74.00;;;;;;5095586;28;20116;-71
2020/12/11 05:05:59;;;;;;;17.17;9.68;;;10.70;73.90;;;;;;5095218;28;20052;-72
2020/12/11 05:08:25;;;;;;;16.75;10.65;;;10.60;73.70;;;;;;5095597;28;20020;-69
2020/12/11 05:10:51;;;;;;;14.57;10.15;;;10.60;73.80;;;;;;5095355;28;20103;-72
2020/12/11 05:13:25;;;;;;;15.45;10.40;;;10.50;73.80;;;;;;5095437;28;20107;-70
2020/12/11 05:16:10;;;;;;;15.52;10.13;;;10.50;74.30;;;;;;5095512;28;20028;-70
2020/12/11 05:18:37;;;;;;;13.30;9.82;;;10.50;74.30;;;;;;5095514;28;20031;-71
2020/12/11 05:21:22;;;;;;;16.65;10.68;;;10.40;73.80;;;;;;5095402;28;20472;-70
2020/12/11 05:23:53;;;;;;;16.30;11.05;;;10.30;74.20;;;;;;5076898;28;20032;-72
2020/12/11 05:26:20;;;;;;;14.82;10.95;;;10.30;74.10;;;;;;5095441;28;20024;-71
2020/12/11 05:28:45;;;;;;;14.40;10.60;;;10.20;74.10;;;;;;5095268;28;20032;-71
2020/12/11 05:31:13;;;;;;;15.30;10.52;;;10.30;74.40;;;;;;5095400;28;20034;-74
2020/12/11 05:33:59;;;;;;;17.75;11.07;;;10.20;74.30;;;;;;5094928;28;20089;-77
2020/12/11 05:36:25;;;;;;;14.15;11.05;;;10.30;74.30;;;;;;5094949;28;20086;-73
2020/12/11 05:38:50;;;;;;;16.27;10.82;;;10.40;74.50;;;;;;5095165;28;20028;-74
2020/12/11 05:41:34;;;;;;;16.75;10.30;;;10.50;74.40;;;;;;5094939;28;20028;-74
2020/12/11 05:44:00;;;;;;;14.43;10.57;;;10.50;74.40;;;;;;5094568;28;20119;-74
2020/12/11 05:46:30;;;;;;;14.63;10.80;;;10.50;73.90;;;;;;5076338;28;20047;-72
2020/12/11 05:48:57;;;;;;;14.43;10.32;;;10.50;74.00;;;;;;5094996;28;20020;-75
2020/12/11 05:51:25;;;;;;;14.55;10.70;;;10.50;73.90;;;;;;5094546;28;20412;-74
2020/12/11 05:53:56;;;;;;;13.48;10.18;;;10.60;74.20;;;;;;5076130;28;20080;-74
2020/12/11 05:56:22;;;;;;;14.90;9.55;;;10.60;73.90;;;;;;5094274;28;20020;-73
2020/12/11 05:58:51;;;;;;;17.48;9.55;;;10.60;73.90;;;;;;5094270;28;20023;-72
2020/12/11 06:01:21;;;;;;;16.40;10.82;;;10.60;73.70;;;;;;5094399;28;20012;-76
2020/12/11 06:03:50;;;;;;;16.95;10.30;;;10.70;73.90;;;;;;5094313;28;20043;-74
2020/12/11 06:06:18;;;;;;;14.52;9.40;;;10.70;73.80;;;;;;5094103;28;20033;-76
2020/12/11 06:08:46;;;;;;;13.20;9.07;;;10.60;73.50;;;;;;5094084;28;20374;-76
2020/12/11 06:11:22;;;;;;;15.13;10.25;;;10.60;73.60;;;;;;5094014;28;20047;-77
2020/12/11 06:13:56;;;;;;;15.38;10.15;;;10.50;73.70;;;;;;5094597;28;20093;-75
2020/12/11 06:16:23;;;;;;;14.75;9.80;;;10.50;74.00;;;;;;5094218;28;20027;-73
2020/12/11 06:18:59;;;;;;;15.80;10.27;;;10.40;73.90;;;;;;5076028;28;20385;-71
2020/12/11 06:21:26;;;;;;;14.15;9.95;;;10.40;73.90;;;;;;5093977;28;20100;-72
2020/12/11 06:23:52;;;;;;;17.20;9.68;;;10.40;73.90;;;;;;5094482;28;20067;-75
2020/12/11 06:26:18;;;;;;;15.88;10.82;;;10.50;74.00;;;;;;5094778;28;20382;-70
2020/12/11 06:28:45;;;;;;;15.27;10.35;;;10.50;73.90;;;;;;5075491;28;20059;-73
2020/12/11 06:31:22;;;;;;;16.23;10.30;;;10.50;73.70;;;;;;5075759;28;20024;-75
2020/12/11 06:33:49;;;;;;;14.45;10.75;;;10.50;73.60;;;;;;5075491;28;20059;-74
2020/12/11 06:36:16;;;;;;;14.57;10.35;;;10.50;73.60;;;;;;5093815;28;20107;-73
2020/12/11 06:38:56;;;;;;;14.90;10.68;;;10.50;73.60;;;;;;5093587;28;20035;-71
2020/12/11 06:41:28;;;;;;;15.48;10.48;;;10.40;74.00;;;;;;5075350;28;20020;-75
2020/12/11 06:44:13;;;;;;;15.02;11.00;;;10.30;73.60;;;;;;5093415;28;20032;-77
2020/12/11 06:46:40;;;;;;;17.13;11.52;;;10.20;73.80;;;;;;5093353;28;20118;-76
2020/12/11 06:49:20;;;;;;;16.10;11.27;;;10.10;74.20;;;;;;5093331;28;20020;-77
2020/12/11 06:51:45;;;;;;;14.30;10.55;;;10.10;74.70;;;;;;5075217;28;20020;-75
2020/12/11 06:54:23;;;;;;;16.98;11.20;;;10.10;74.40;;;;;;5093782;28;20097;-74
2020/12/11 06:56:50;;;;;;;15.23;10.70;;;10.10;74.20;;;;;;5093793;28;20055;-77
2020/12/11 06:59:28;;;;;;;16.80;10.10;;;10.10;74.10;;;;;;5094348;28;20031;-78
2020/12/11 07:02:08;;;;;;;15.32;10.52;;;10.10;74.00;;;;;;5094677;28;20114;-77
2020/12/11 07:04:49;;;;;;;15.27;10.48;;;10.20;74.00;;;;;;5093574;28;20107;-75
2020/12/11 07:07:15;;;;;;;18.58;10.52;;;10.30;74.30;;;;;;5094095;28;20115;-76
2020/12/11 07:09:46;;;;;;;16.80;10.57;;;10.20;73.60;;;;;;5093492;28;20430;-76
2020/12/11 07:12:14;;;;;;;17.30;10.27;;;10.20;73.50;;;;;;5093746;28;20047;-76
2020/12/11 07:14:41;;;;;;;18.65;9.95;;;10.20;73.60;;;;;;5093526;28;20111;-77
2020/12/11 07:17:07;;;;;;;14.25;9.68;;;10.10;73.40;;;;;;5093265;28;20020;-78
2020/12/11 07:19:34;;;;;;;14.02;9.80;;;10.10;73.60;;;;;;5093431;28;20338;-72
2020/12/11 07:22:01;;;;;;;15.13;10.18;;;10.10;73.20;;;;;;5093212;28;20038;-75
2020/12/11 07:24:30;;;;;;;14.75;9.68;;;10.10;73.30;;;;;;5092950;28;20035;-77
2020/12/11 07:27:04;;;;;;;15.50;10.07;;;10.10;73.50;;;;;;5075221;28;20163;-75
2020/12/11 07:29:30;;;;;;;14.25;9.50;;;10.10;73.50;;;;;;5093412;28;20124;-73
2020/12/11 07:31:56;;;;;;;17.25;9.88;;;10.10;73.30;;;;;;5092948;28;20385;-73
2020/12/11 07:34:27;;;;;;;19.10;9.65;;;10.20;73.20;;;;;;5093023;28;20028;-76
2020/12/11 07:36:56;;;;;;;16.90;9.45;;;10.20;72.90;;;;;;5092880;28;20028;-74
2020/12/11 07:39:29;;;;;;;19.33;9.05;;;10.40;72.80;;;;;;5093160;28;20024;-72
2020/12/11 07:41:56;;;;;;;15.23;9.63;;;10.40;72.90;;;;;;5092804;28;20036;-72
2020/12/11 07:44:25;;;;;;;13.88;7.95;;;10.50;72.20;;;;;;5092839;28;20040;-78
2020/12/11 07:46:52;;;;;;;13.73;8.95;;;10.50;72.00;;;;;;5092965;28;20032;-74
2020/12/11 07:49:18;;;;;;;12.95;8.60;;;10.50;72.00;;;;;;5093069;28;20020;-70
2020/12/11 07:51:50;;;;;;;16.05;8.73;;;10.50;72.20;;;;;;5092904;28;20487;-73
2020/12/11 07:54:17;;;;;;;15.57;8.45;;;10.50;72.00;;;;;;5092916;28;20058;-75
2020/12/11 07:56:43;;;;;;;14.05;8.35;;;10.50;72.10;;;;;;5092698;28;20032;-76
2020/12/11 07:59:15;;;;;;;15.57;9.27;;;10.50;72.10;;;;;;5092674;28;20020;-76
2020/12/11 08:01:47;;;;;;;16.00;8.85;;;10.50;71.90;;;;;;5093350;28;20032;-72
2020/12/11 08:04:16;;;;;;;14.50;9.43;;;10.50;71.90;;;;;;5096416;28;20036;-76
2020/12/11 08:06:58;;;;;;;12.35;8.63;;;10.60;71.90;;;;;;5096558;28;20432;-75
2020/12/11 08:09:30;;;;;;;13.35;9.38;;;10.60;71.60;;;;;;5096526;28;20120;-77
2020/12/11 08:12:06;;;;;;;15.25;9.15;;;10.60;71.70;;;;;;5096379;28;20025;-72
2020/12/11 08:14:39;;;;;;;17.30;10.10;;;10.60;71.80;;;;;;5096230;28;20034;-77
2020/12/11 08:17:11;;;;;;;14.98;8.98;;;10.60;71.80;;;;;;5096518;28;20103;-72
2020/12/11 08:19:37;;;;;;;18.70;9.18;;;10.60;71.80;;;;;;5096080;28;20024;-75
2020/12/11 08:22:16;;;;;;;15.75;9.77;;;10.60;71.70;;;;;;5096300;28;20445;-76
2020/12/11 08:24:45;;;;;;;14.93;9.40;;;10.60;71.70;;;;;;5096321;28;20024;-73
2020/12/11 08:27:25;;;;;;;16.73;9.20;;;10.60;71.70;;;;;;5078241;28;20104;-76
2020/12/11 08:30:08;;;;;;;13.48;8.75;;;10.60;71.40;;;;;;5096536;28;20032;-74
2020/12/11 08:32:33;;;;;;;15.27;9.50;;;10.60;71.20;;;;;;5095929;28;20081;-77
2020/12/11 08:34:59;;;;;;;13.80;9.02;;;10.60;71.30;;;;;;5095954;28;20032;-75
2020/12/11 08:37:25;;;;;;;14.70;9.45;;;10.60;71.50;;;;;;5096004;28;20100;-75
2020/12/11 08:40:04;;;;;;;15.80;10.10;;;10.70;71.40;;;;;;5095877;28;20035;-77
2020/12/11 08:42:40;;;;;;;14.98;9.90;;;10.70;71.20;;;;;;5077306;28;20078;-77
2020/12/11 08:45:20;;;;;;;14.98;8.55;;;10.70;71.30;;;;;;5095731;28;20491;-76
2020/12/11 08:48:06;;;;;;;14.18;8.57;;;10.70;71.10;;;;;;5095335;28;20016;-74
2020/12/11 08:53:02;;;;;;;10.82;7.65;;;10.80;70.90;;;;;;5077688;28;20032;-73
2020/12/11 08:55:28;;;;;;;12.80;8.02;;;10.80;70.60;;;;;;5095823;28;20024;-77
2020/12/11 08:57:54;;;;;;;13.25;8.20;;;10.80;69.80;;;;;;5095775;28;20438;-77
2020/12/11 09:00:20;;;;;;;12.73;7.95;;;10.80;70.30;;;;;;5095305;28;20118;-73
2020/12/11 09:02:45;;;;;;;10.18;7.60;;;10.80;70.00;;;;;;5095664;28;20512;-76
2020/12/11 09:05:11;;;;;;;11.65;7.57;;;10.90;69.90;;;;;;5095444;28;20059;-73
2020/12/11 09:07:37;;;;;;;16.48;7.53;;;10.80;69.30;;;;;;5095832;28;20036;-73
2020/12/11 09:10:05;;;;;;;12.32;7.32;;;10.80;69.10;;;;;;5095589;28;20135;-73
2020/12/11 09:12:31;;;;;;;10.80;7.53;;;10.80;68.90;;;;;;5095306;28;20038;-74
2020/12/11 09:14:58;;;;;;;13.73;7.60;;;10.80;69.00;;;;;;5095107;28;20093;-72
2020/12/11 09:17:23;;;;;;;12.80;8.13;;;10.90;68.90;;;;;;5095406;28;20028;-77
2020/12/11 09:19:49;;;;;;;11.63;7.85;;;10.80;68.90;;;;;;5095441;28;20028;-76
2020/12/11 09:22:15;;;;;;;12.07;6.95;;;10.90;68.90;;;;;;5095216;28;20546;-76
2020/12/11 09:24:41;;;;;;;11.65;6.72;;;10.90;68.90;;;;;;5094976;28;20466;-74
2020/12/11 09:27:07;;;;;;;11.82;7.43;;;10.90;68.20;;;;;;5095169;28;20024;-75
2020/12/11 09:29:39;;;;;;;13.23;8.02;;;11.00;68.50;;;;;;5095162;28;20035;-72
2020/12/11 09:32:06;;;;;;;11.23;7.28;;;11.00;68.00;;;;;;5095108;28;20040;-75
2020/12/11 09:34:34;;;;;;;11.20;7.50;;;11.10;68.10;;;;;;5094954;28;20131;-77
2020/12/11 09:37:02;;;;;;;13.45;8.40;;;11.20;67.40;;;;;;5094869;28;20020;-77
2020/12/11 09:39:28;;;;;;;11.57;8.02;;;11.30;67.80;;;;;;5094945;28;20115;-72
2020/12/11 09:42:48;;;;;;;11.02;7.05;;;11.30;67.40;;;;;;5095528;28;20040;-76
2020/12/11 09:45:15;;;;;;;12.73;6.90;;;11.30;67.30;;;;;;5081461;28;20093;-76
2020/12/11 09:47:48;;;;;;;10.25;6.57;;;11.30;66.90;;;;;;5094934;28;20016;-74
2020/12/11 09:50:29;;;;;;;12.93;6.63;;;11.40;66.70;;;;;;5076717;28;20465;-73
2020/12/11 09:53:06;;;;;;;15.05;6.72;;;11.40;66.80;;;;;;5094832;28;20032;-77
2020/12/11 09:55:42;;;;;;;12.43;7.20;;;11.40;66.30;;;;;;5094619;28;20103;-76
2020/12/11 09:58:08;;;;;;;9.25;6.15;;;11.40;66.50;;;;;;5094516;28;20101;-73
2020/12/11 10:00:34;;;;;;;11.50;6.47;;;11.40;66.10;;;;;;5094448;28;20091;-74
2020/12/11 10:03:06;;;;;;;9.45;6.50;;;11.40;65.80;;;;;;5094234;28;20040;-76
2020/12/11 10:05:32;;;;;;;12.30;6.72;;;11.50;66.10;;;;;;5094031;28;20128;-76
2020/12/11 10:07:57;;;;;;;12.60;6.82;;;11.60;65.70;;;;;;5076090;28;20111;-76
2020/12/11 10:10:24;;;;;;;12.60;7.28;;;11.60;65.30;;;;;;5076335;28;20030;-76
2020/12/11 10:12:51;;;;;;;10.73;7.10;;;11.70;65.50;;;;;;5094485;28;20024;-72
2020/12/11 10:15:21;;;;;;;9.55;6.88;;;11.80;65.40;;;;;;5094178;28;20358;-72
2020/12/11 10:17:47;;;;;;;9.55;7.13;;;11.90;65.60;;;;;;5076019;28;20031;-76
2020/12/11 10:20:18;;;;;;;11.85;7.00;;;11.90;65.10;;;;;;5094289;28;20035;-74
2020/12/11 10:22:46;;;;;;;11.57;6.60;;;11.90;64.90;;;;;;5094129;28;20031;-70
2020/12/11 10:25:12;;;;;;;13.65;6.68;;;11.90;64.90;;;;;;5093245;28;20035;-74
2020/12/11 10:27:38;;;;;;;11.25;6.15;;;11.90;64.70;;;;;;5094128;28;20020;-72
2020/12/11 10:30:04;;;;;;;8.77;5.57;;;12.00;65.10;;;;;;5094337;28;20155;-72
2020/12/11 10:32:30;;;;;;;8.32;5.57;;;12.00;64.30;;;;;;5075647;28;20371;-71
2020/12/11 10:34:55;;;;;;;11.30;6.13;;;12.10;64.50;;;;;;5093871;28;20031;-73
2020/12/11 10:37:23;;;;;;;9.43;6.13;;;12.20;64.20;;;;;;5093681;28;20103;-74
2020/12/11 10:39:50;;;;;;;9.68;6.32;;;12.30;64.10;;;;;;5093831;28;20158;-76
2020/12/11 10:42:16;;;;;;;12.00;6.18;;;12.40;63.60;;;;;;5093552;28;20028;-76
2020/12/11 10:44:41;;;;;;;10.63;6.57;;;12.50;63.40;;;;;;5075802;28;20038;-73
2020/12/11 10:47:08;;;;;;;11.15;6.85;;;12.60;63.30;;;;;;5093921;28;20020;-74
2020/12/11 10:49:34;;;;;;;11.25;7.03;;;12.70;62.90;;;;;;5093442;28;20058;-76
2020/12/11 10:52:00;;;;;;;10.48;6.43;;;12.70;63.00;;;;;;5093951;28;20028;-74
2020/12/11 10:54:29;;;;;;;12.52;6.95;;;12.70;62.80;;;;;;5093578;28;20024;-78
2020/12/11 10:56:55;;;;;;;14.20;6.20;;;12.80;63.60;;;;;;5077010;28;20473;-77
2020/12/11 10:59:21;;;;;;;11.52;6.10;;;12.80;63.00;;;;;;5101799;28;20430;-77
2020/12/11 11:01:51;;;;;;;9.00;5.60;;;12.90;62.70;;;;;;5080654;28;20043;-71
2020/12/11 11:04:17;;;;;;;9.43;6.45;;;12.90;62.30;;;;;;5106280;22;20051;-76
2020/12/11 11:06:47;;;;;;;10.32;6.15;;;13.00;62.00;;;;;;5093494;28;20112;-75
2020/12/11 11:09:32;;;;;;;9.50;6.28;;;13.10;62.10;;;;;;5093052;28;20426;-72
2020/12/11 11:12:27;;;;;;;21.45;10.70;;;13.10;62.20;;;;;;5093176;28;20110;-73
2020/12/11 11:17:35;;;;;;;11.85;7.00;;;13.20;61.70;;;;;;5093141;28;20481;-72
2020/12/11 11:22:55;;;;;;;12.43;6.07;;;13.30;61.50;;;;;;5093220;28;20512;-74
2020/12/11 11:28:04;;;;;;;11.15;5.80;;;13.50;61.10;;;;;;5093890;28;20028;-72
2020/12/11 11:30:32;;;;;;;9.75;6.22;;;13.50;60.90;;;;;;5092997;28;20028;-75
2020/12/11 11:32:58;;;;;;;9.38;5.75;;;13.60;61.30;;;;;;5092714;28;20114;-71
2020/12/11 11:35:24;;;;;;;12.02;5.93;;;13.60;60.60;;;;;;5092606;28;20070;-71
2020/12/11 11:37:50;;;;;;;14.10;6.95;;;13.60;60.80;;;;;;5096880;28;20028;-69
2020/12/11 11:40:16;;;;;;;12.55;5.80;;;13.70;60.60;;;;;;5097162;28;20026;-71
2020/12/11 11:42:42;;;;;;;9.65;5.82;;;13.70;60.30;;;;;;5096860;28;20027;-72
2020/12/11 11:45:11;;;;;;;12.25;5.85;;;13.70;60.30;;;;;;5096773;28;20490;-70
2020/12/11 11:47:39;;;;;;;10.60;5.85;;;13.80;60.20;;;;;;5096857;28;20020;-71
2020/12/11 11:50:25;;;;;;;11.05;6.00;;;13.80;60.00;;;;;;5096518;28;20047;-71
2020/12/11 11:53:36;;;;;;;8.82;5.05;;;13.90;60.00;;;;;;5096715;28;20038;-71
2020/12/11 11:55:37;;;;;;;11.82;6.03;;;13.90;59.90;;;;;;5064105;28;20024;-70
2020/12/11 11:58:03;;;;;;;11.90;6.57;;;14.00;60.00;;;;;;5096770;28;20035;-73
2020/12/11 12:00:28;;;;;;;11.60;6.10;;;14.00;60.00;;;;;;5096412;28;20028;-70
2020/12/11 12:02:54;;;;;;;12.52;6.22;;;14.00;59.70;;;;;;5078497;28;20442;-71
2020/12/11 12:05:20;;;;;;;14.90;6.28;;;14.10;59.60;;;;;;5096065;28;20052;-73
2020/12/11 12:07:46;;;;;;;9.65;5.38;;;14.10;59.60;;;;;;5096189;28;20087;-75
2020/12/11 12:10:11;;;;;;;10.88;6.05;;;14.10;59.30;;;;;;5095937;28;20036;-71
2020/12/11 12:12:41;;;;;;;6.63;4.32;;;14.10;59.00;;;;;;5096005;28;20024;-72
2020/12/11 12:15:10;;;;;;;12.25;7.45;;;14.10;58.70;;;;;;5096115;28;20111;-70
2020/12/11 12:17:40;;;;;;;9.48;5.13;;;14.20;58.20;;;;;;5096010;28;20032;-70
2020/12/11 12:20:10;;;;;;;10.65;5.55;;;14.20;57.90;;;;;;5096221;28;20066;-69
2020/12/11 12:30:49;;;;;;;9.82;4.38;;;14.30;54.80;;;;;;5096153;28;19915;-72
2020/12/11 12:38:49;;;;;;;6.68;3.20;;;14.30;56.30;;;;;;5095680;28;20028;-74
2020/12/11 12:43:59;;;;;;;6.20;3.00;;;14.30;55.60;;;;;;5095377;28;20038;-73
2020/12/11 12:46:26;;;;;;;7.68;3.60;;;14.30;55.90;;;;;;5095475;28;20461;-74
2020/12/11 12:48:52;;;;;;;7.20;3.25;;;14.30;55.50;;;;;;5094772;28;20052;-75
2020/12/11 12:51:17;;;;;;;7.05;3.55;;;14.40;55.90;;;;;;5095792;28;20024;-73
2020/12/11 12:53:43;;;;;;;7.95;3.13;;;14.40;55.30;;;;;;5095736;28;20034;-74
2020/12/11 13:07:07;;;;;;;7.18;3.08;;;14.30;55.90;;;;;;5095346;28;20024;-75
2020/12/11 13:09:34;;;;;;;6.38;3.22;;;14.30;56.50;;;;;;5095047;28;20028;-73
2020/12/11 13:12:00;;;;;;;6.05;3.15;;;14.20;56.20;;;;;;5095243;28;20024;-70
2020/12/11 13:14:25;;;;;;;6.10;3.15;;;14.20;56.70;;;;;;5095062;28;20027;-73
2020/12/11 13:16:51;;;;;;;7.90;3.00;;;14.10;56.40;;;;;;5095172;28;20109;-70
2020/12/11 13:19:19;;;;;;;6.72;2.67;;;14.10;56.70;;;;;;5094966;28;20129;-76